sensor_id;sensor_type;location;lat;lon;timestamp;pressure;altitude;pressure_sealevel;temperature;humidity
47556;BME280;33291;46.222;26.460;2024-02-15T00:01:57;96950.81;;;2.99;94.80
47556;BME280;33291;46.222;26.460;2024-02-15T00:04:23;96984.22;;;3.17;95.08
47556;BME280;33291;46.222;26.460;2024-02-15T00:06:48;96982.41;;;3.19;94.94
47556;BME280;33291;46.222;26.460;2024-02-15T00:09:14;96978.91;;;3.20;94.75
47556;BME280;33291;46.222;26.460;2024-02-15T00:11:39;96979.75;;;3.20;94.83
47556;BME280;33291;46.222;26.460;2024-02-15T00:14:05;96973.81;;;3.18;95.28
47556;BME280;33291;46.222;26.460;2024-02-15T00:16:33;96982.25;;;3.22;95.20
47556;BME280;33291;46.222;26.460;2024-02-15T00:18:59;96981.56;;;3.18;95.31
47556;BME280;33291;46.222;26.460;2024-02-15T00:21:25;96969.09;;;3.11;95.04
47556;BME280;33291;46.222;26.460;2024-02-15T00:23:50;96977.25;;;3.19;95.38
47556;BME280;33291;46.222;26.460;2024-02-15T00:26:16;96973.25;;;3.13;95.07
47556;BME280;33291;46.222;26.460;2024-02-15T00:28:41;96970.06;;;3.08;95.09
47556;BME280;33291;46.222;26.460;2024-02-15T00:31:08;96981.78;;;3.14;95.04
47556;BME280;33291;46.222;26.460;2024-02-15T00:33:34;96978.72;;;3.07;95.20
47556;BME280;33291;46.222;26.460;2024-02-15T00:36:02;96971.25;;;3.02;95.64
47556;BME280;33291;46.222;26.460;2024-02-15T00:38:29;96977.06;;;3.06;95.91
47556;BME280;33291;46.222;26.460;2024-02-15T00:40:56;96979.53;;;3.08;95.77
47556;BME280;33291;46.222;26.460;2024-02-15T00:43:26;96979.53;;;3.08;95.75
47556;BME280;33291;46.222;26.460;2024-02-15T00:45:52;96976.06;;;3.09;96.11
47556;BME280;33291;46.222;26.460;2024-02-15T00:48:17;96981.22;;;3.09;96.00
47556;BME280;33291;46.222;26.460;2024-02-15T00:50:43;96979.47;;;3.09;96.37
47556;BME280;33291;46.222;26.460;2024-02-15T00:53:08;96966.69;;;3.08;96.04
47556;BME280;33291;46.222;26.460;2024-02-15T00:55:34;96966.84;;;3.05;96.13
47556;BME280;33291;46.222;26.460;2024-02-15T00:58:00;96965.94;;;3.06;96.04
47556;BME280;33291;46.222;26.460;2024-02-15T01:00:25;96962.59;;;3.03;95.87
47556;BME280;33291;46.222;26.460;2024-02-15T01:02:51;96956.72;;;3.01;96.15
47556;BME280;33291;46.222;26.460;2024-02-15T01:05:18;96964.34;;;3.03;96.34
47556;BME280;33291;46.222;26.460;2024-02-15T01:07:44;96952.63;;;2.97;96.13
47556;BME280;33291;46.222;26.460;2024-02-15T01:10:10;96961.13;;;2.99;96.27
47556;BME280;33291;46.222;26.460;2024-02-15T01:12:35;96961.94;;;3.00;96.08
47556;BME280;33291;46.222;26.460;2024-02-15T01:15:02;96963.59;;;3.01;96.19
47556;BME280;33291;46.222;26.460;2024-02-15T01:17:28;96949.22;;;2.97;96.41
47556;BME280;33291;46.222;26.460;2024-02-15T01:19:54;96956.72;;;3.01;96.70
47556;BME280;33291;46.222;26.460;2024-02-15T01:22:20;96960.94;;;3.02;96.61
47556;BME280;33291;46.222;26.460;2024-02-15T01:24:49;96961.53;;;3.08;96.42
47556;BME280;33291;46.222;26.460;2024-02-15T01:27:14;96960.03;;;3.03;96.21
47556;BME280;33291;46.222;26.460;2024-02-15T01:29:40;96959.44;;;2.98;96.31
47556;BME280;33291;46.222;26.460;2024-02-15T01:32:07;96968.69;;;3.02;96.25
47556;BME280;33291;46.222;26.460;2024-02-15T01:34:33;96957.59;;;3.00;96.20
47556;BME280;33291;46.222;26.460;2024-02-15T01:36:59;96968.69;;;3.02;96.57
47556;BME280;33291;46.222;26.460;2024-02-15T01:39:24;96967.16;;;2.98;96.22
47556;BME280;33291;46.222;26.460;2024-02-15T01:41:50;96941.50;;;2.81;95.81
47556;BME280;33291;46.222;26.460;2024-02-15T01:44:21;96961.44;;;2.93;95.90
47556;BME280;33291;46.222;26.460;2024-02-15T01:46:50;96971.66;;;2.95;95.92
47556;BME280;33291;46.222;26.460;2024-02-15T01:49:19;96976.72;;;2.96;95.51
47556;BME280;33291;46.222;26.460;2024-02-15T01:51:45;96974.16;;;2.96;95.75
47556;BME280;33291;46.222;26.460;2024-02-15T01:54:12;96971.56;;;2.96;96.13
47556;BME280;33291;46.222;26.460;2024-02-15T01:56:38;96977.47;;;2.98;96.29
47556;BME280;33291;46.222;26.460;2024-02-15T01:59:05;96968.06;;;2.97;96.64
47556;BME280;33291;46.222;26.460;2024-02-15T02:01:31;96967.09;;;3.00;96.61
47556;BME280;33291;46.222;26.460;2024-02-15T02:04:00;96967.09;;;3.00;96.88
47556;BME280;33291;46.222;26.460;2024-02-15T02:06:26;96969.56;;;3.01;96.78
47556;BME280;33291;46.222;26.460;2024-02-15T02:08:52;96969.56;;;3.01;96.77
47556;BME280;33291;46.222;26.460;2024-02-15T02:11:22;96972.16;;;3.01;96.77
47556;BME280;33291;46.222;26.460;2024-02-15T02:13:48;96973.06;;;3.00;96.80
47556;BME280;33291;46.222;26.460;2024-02-15T02:16:26;96973.22;;;2.97;96.38
47556;BME280;33291;46.222;26.460;2024-02-15T02:18:54;96968.22;;;2.94;96.10
47556;BME280;33291;46.222;26.460;2024-02-15T02:21:20;96965.81;;;2.91;96.17
47556;BME280;33291;46.222;26.460;2024-02-15T02:23:48;96970.13;;;2.91;95.84
47556;BME280;33291;46.222;26.460;2024-02-15T02:26:19;96969.56;;;2.86;95.33
47556;BME280;33291;46.222;26.460;2024-02-15T02:28:47;96968.63;;;2.87;95.67
47556;BME280;33291;46.222;26.460;2024-02-15T02:31:12;96974.63;;;2.87;95.59
47556;BME280;33291;46.222;26.460;2024-02-15T02:33:38;96970.38;;;2.86;96.02
47556;BME280;33291;46.222;26.460;2024-02-15T02:36:04;96966.13;;;2.85;95.99
47556;BME280;33291;46.222;26.460;2024-02-15T02:38:35;96973.84;;;2.85;96.16
47556;BME280;33291;46.222;26.460;2024-02-15T02:41:04;96968.13;;;2.80;96.10
47556;BME280;33291;46.222;26.460;2024-02-15T02:43:29;96967.31;;;2.79;96.59
47556;BME280;33291;46.222;26.460;2024-02-15T02:45:55;96970.84;;;2.77;96.56
47556;BME280;33291;46.222;26.460;2024-02-15T02:48:21;96948.34;;;2.64;96.83
47556;BME280;33291;46.222;26.460;2024-02-15T02:50:47;96969.44;;;2.71;96.61
47556;BME280;33291;46.222;26.460;2024-02-15T02:53:13;96980.28;;;2.76;97.09
47556;BME280;33291;46.222;26.460;2024-02-15T02:55:43;96991.19;;;2.81;97.19
47556;BME280;33291;46.222;26.460;2024-02-15T02:58:09;96983.88;;;2.74;96.96
47556;BME280;33291;46.222;26.460;2024-02-15T03:00:34;97003.09;;;2.84;96.81
47556;BME280;33291;46.222;26.460;2024-02-15T03:03:00;96997.00;;;2.85;96.99
47556;BME280;33291;46.222;26.460;2024-02-15T03:05:26;96998.69;;;2.86;96.50
47556;BME280;33291;46.222;26.460;2024-02-15T03:07:52;97002.41;;;2.80;96.56
47556;BME280;33291;46.222;26.460;2024-02-15T03:10:18;97007.22;;;2.87;96.38
47556;BME280;33291;46.222;26.460;2024-02-15T03:12:44;97015.03;;;2.85;96.19
47556;BME280;33291;46.222;26.460;2024-02-15T03:15:13;97010.88;;;2.82;96.54
47556;BME280;33291;46.222;26.460;2024-02-15T03:17:40;97015.94;;;2.84;96.56
47556;BME280;33291;46.222;26.460;2024-02-15T03:20:07;97021.19;;;2.82;96.53
47556;BME280;33291;46.222;26.460;2024-02-15T03:22:59;97022.00;;;2.83;96.38
47556;BME280;33291;46.222;26.460;2024-02-15T03:25:25;97015.19;;;2.82;96.61
47556;BME280;33291;46.222;26.460;2024-02-15T03:27:55;97020.31;;;2.82;96.43
47556;BME280;33291;46.222;26.460;2024-02-15T03:30:22;97011.88;;;2.80;96.29
47556;BME280;33291;46.222;26.460;2024-02-15T03:32:52;97012.59;;;2.82;96.70
47556;BME280;33291;46.222;26.460;2024-02-15T03:35:19;97019.44;;;2.83;96.77
47556;BME280;33291;46.222;26.460;2024-02-15T03:37:45;96987.06;;;2.61;96.71
47556;BME280;33291;46.222;26.460;2024-02-15T03:40:12;97011.88;;;2.80;97.13
47556;BME280;33291;46.222;26.460;2024-02-15T03:42:37;97004.38;;;2.75;97.33
47556;BME280;33291;46.222;26.460;2024-02-15T03:45:07;97015.78;;;2.87;97.05
47556;BME280;33291;46.222;26.460;2024-02-15T03:47:34;97006.41;;;2.86;97.28
47556;BME280;33291;46.222;26.460;2024-02-15T03:50:01;97007.31;;;2.85;97.77
47556;BME280;33291;46.222;26.460;2024-02-15T03:52:27;97001.34;;;2.84;97.47
47556;BME280;33291;46.222;26.460;2024-02-15T03:54:55;97003.00;;;2.86;97.86
47556;BME280;33291;46.222;26.460;2024-02-15T03:57:23;97002.06;;;2.87;97.52
47556;BME280;33291;46.222;26.460;2024-02-15T03:59:48;97004.72;;;2.85;97.20
47556;BME280;33291;46.222;26.460;2024-02-15T04:02:21;97009.88;;;2.85;97.10
47556;BME280;33291;46.222;26.460;2024-02-15T04:04:49;97012.53;;;2.83;97.03
47556;BME280;33291;46.222;26.460;2024-02-15T04:07:18;97003.91;;;2.84;96.69
47556;BME280;33291;46.222;26.460;2024-02-15T04:09:45;96987.03;;;2.79;97.12
47556;BME280;33291;46.222;26.460;2024-02-15T04:12:11;96990.66;;;2.75;97.44
47556;BME280;33291;46.222;26.460;2024-02-15T04:14:37;96991.44;;;2.77;97.35
47556;BME280;33291;46.222;26.460;2024-02-15T04:17:07;96994.16;;;2.74;97.18
47556;BME280;33291;46.222;26.460;2024-02-15T04:19:32;96990.16;;;2.68;96.81
47556;BME280;33291;46.222;26.460;2024-02-15T04:21:58;96990.00;;;2.71;96.88
47556;BME280;33291;46.222;26.460;2024-02-15T04:24:26;96986.59;;;2.71;96.82
47556;BME280;33291;46.222;26.460;2024-02-15T04:26:52;96985.84;;;2.69;96.39
47556;BME280;33291;46.222;26.460;2024-02-15T04:29:18;96990.66;;;2.75;96.71
47556;BME280;33291;46.222;26.460;2024-02-15T04:31:46;97000.59;;;2.82;96.65
47556;BME280;33291;46.222;26.460;2024-02-15T04:34:15;96987.28;;;2.74;96.56
47556;BME280;33291;46.222;26.460;2024-02-15T04:36:43;96994.28;;;2.88;96.51
47556;BME280;33291;46.222;26.460;2024-02-15T04:39:10;97003.66;;;2.89;96.45
47556;BME280;33291;46.222;26.460;2024-02-15T04:41:39;97003.50;;;2.92;96.58
47556;BME280;33291;46.222;26.460;2024-02-15T04:44:05;97000.94;;;2.92;96.86
47556;BME280;33291;46.222;26.460;2024-02-15T04:46:34;97005.69;;;3.00;96.74
47556;BME280;33291;46.222;26.460;2024-02-15T04:48:59;97002.44;;;2.96;96.79
47556;BME280;33291;46.222;26.460;2024-02-15T04:51:27;97004.09;;;2.97;96.48
47556;BME280;33291;46.222;26.460;2024-02-15T04:53:53;96997.31;;;2.96;96.74
47556;BME280;33291;46.222;26.460;2024-02-15T04:56:18;97009.09;;;3.00;96.52
47556;BME280;33291;46.222;26.460;2024-02-15T04:58:46;97016.72;;;3.02;96.25
47556;BME280;33291;46.222;26.460;2024-02-15T05:01:13;97014.38;;;2.97;96.06
47556;BME280;33291;46.222;26.460;2024-02-15T05:03:39;97019.38;;;3.00;96.07
47556;BME280;33291;46.222;26.460;2024-02-15T05:06:05;97031.34;;;3.01;96.04
47556;BME280;33291;46.222;26.460;2024-02-15T05:08:33;97029.50;;;3.03;95.86
47556;BME280;33291;46.222;26.460;2024-02-15T05:11:02;97021.94;;;3.00;94.71
47556;BME280;33291;46.222;26.460;2024-02-15T05:13:29;97025.47;;;2.99;94.10
47556;BME280;33291;46.222;26.460;2024-02-15T05:15:55;97028.78;;;3.01;93.83
47556;BME280;33291;46.222;26.460;2024-02-15T05:18:21;97036.34;;;3.05;93.71
47556;BME280;33291;46.222;26.460;2024-02-15T05:20:46;97032.00;;;3.05;93.98
47556;BME280;33291;46.222;26.460;2024-02-15T05:23:12;97030.59;;;2.99;93.64
47556;BME280;33291;46.222;26.460;2024-02-15T05:25:38;97026.69;;;2.92;93.30
47556;BME280;33291;46.222;26.460;2024-02-15T05:28:03;97029.66;;;3.00;93.58
47556;BME280;33291;46.222;26.460;2024-02-15T05:30:31;97045.81;;;3.04;93.30
47556;BME280;33291;46.222;26.460;2024-02-15T05:32:58;97034.97;;;2.97;93.31
47556;BME280;33291;46.222;26.460;2024-02-15T05:35:23;97054.28;;;3.06;93.76
47556;BME280;33291;46.222;26.460;2024-02-15T05:37:50;97055.94;;;3.07;93.80
47556;BME280;33291;46.222;26.460;2024-02-15T05:40:19;97062.81;;;3.07;93.81
47556;BME280;33291;46.222;26.460;2024-02-15T05:42:45;97063.75;;;3.06;93.79
47556;BME280;33291;46.222;26.460;2024-02-15T05:45:40;97068.03;;;3.05;93.79
47556;BME280;33291;46.222;26.460;2024-02-15T05:48:06;97067.13;;;3.06;93.54
47556;BME280;33291;46.222;26.460;2024-02-15T05:50:32;97070.38;;;3.10;93.54
47556;BME280;33291;46.222;26.460;2024-02-15T05:52:58;97066.97;;;3.09;93.58
47556;BME280;33291;46.222;26.460;2024-02-15T05:55:24;97077.19;;;3.11;93.54
47556;BME280;33291;46.222;26.460;2024-02-15T05:57:51;97085.69;;;3.13;93.46
47556;BME280;33291;46.222;26.460;2024-02-15T06:00:18;97084.53;;;3.18;93.47
47556;BME280;33291;46.222;26.460;2024-02-15T06:02:44;97084.59;;;3.17;93.33
47556;BME280;33291;46.222;26.460;2024-02-15T06:05:10;97096.66;;;3.16;93.02
47556;BME280;33291;46.222;26.460;2024-02-15T06:07:36;97079.69;;;3.12;93.38
47556;BME280;33291;46.222;26.460;2024-02-15T06:10:01;97067.28;;;3.03;92.89
47556;BME280;33291;46.222;26.460;2024-02-15T06:12:31;97014.13;;;2.69;92.75
47556;BME280;33291;46.222;26.460;2024-02-15T06:14:57;97093.09;;;3.19;92.33
47556;BME280;33291;46.222;26.460;2024-02-15T06:17:23;97078.88;;;3.12;92.35
47556;BME280;33291;46.222;26.460;2024-02-15T06:19:49;97092.41;;;3.15;92.31
47556;BME280;33291;46.222;26.460;2024-02-15T06:22:15;97093.50;;;3.11;91.89
47556;BME280;33291;46.222;26.460;2024-02-15T06:24:41;97092.66;;;3.11;91.68
47556;BME280;33291;46.222;26.460;2024-02-15T06:27:07;97090.22;;;3.08;91.94
47556;BME280;33291;46.222;26.460;2024-02-15T06:29:32;97092.66;;;3.11;91.89
47556;BME280;33291;46.222;26.460;2024-02-15T06:32:36;97102.78;;;3.14;91.40
47556;BME280;33291;46.222;26.460;2024-02-15T06:35:20;97099.47;;;3.12;91.53
47556;BME280;33291;46.222;26.460;2024-02-15T06:38:04;97102.78;;;3.14;90.99
47556;BME280;33291;46.222;26.460;2024-02-15T06:40:48;97071.78;;;2.99;90.88
47556;BME280;33291;46.222;26.460;2024-02-15T06:43:14;97108.63;;;3.17;91.00
47556;BME280;33291;46.222;26.460;2024-02-15T06:45:39;97101.66;;;3.19;90.53
47556;BME280;33291;46.222;26.460;2024-02-15T06:48:09;97098.41;;;3.16;90.25
47556;BME280;33291;46.222;26.460;2024-02-15T06:50:35;97107.31;;;3.26;89.95
47556;BME280;33291;46.222;26.460;2024-02-15T06:53:02;97105.75;;;3.24;89.53
47556;BME280;33291;46.222;26.460;2024-02-15T06:55:28;97102.16;;;3.26;89.16
47556;BME280;33291;46.222;26.460;2024-02-15T06:57:54;97099.59;;;3.26;89.37
47556;BME280;33291;46.222;26.460;2024-02-15T07:00:20;97108.81;;;3.30;88.71
47556;BME280;33291;46.222;26.460;2024-02-15T07:02:46;97111.25;;;3.33;88.01
47556;BME280;33291;46.222;26.460;2024-02-15T07:05:14;97103.50;;;3.33;87.00
47556;BME280;33291;46.222;26.460;2024-02-15T07:07:39;97102.69;;;3.33;86.41
47556;BME280;33291;46.222;26.460;2024-02-15T07:10:09;97106.00;;;3.35;85.57
47556;BME280;33291;46.222;26.460;2024-02-15T07:12:36;97074.94;;;3.22;84.54
47556;BME280;33291;46.222;26.460;2024-02-15T07:15:04;97095.72;;;3.35;83.94
47556;BME280;33291;46.222;26.460;2024-02-15T07:17:32;97095.38;;;3.41;82.85
47556;BME280;33291;46.222;26.460;2024-02-15T07:19:58;97092.97;;;3.38;82.52
47556;BME280;33291;46.222;26.460;2024-02-15T07:22:24;97104.72;;;3.44;81.69
47556;BME280;33291;46.222;26.460;2024-02-15T07:24:50;97102.13;;;3.44;80.91
47556;BME280;33291;46.222;26.460;2024-02-15T07:27:15;97110.34;;;3.50;81.09
47556;BME280;33291;46.222;26.460;2024-02-15T07:29:42;97102.56;;;3.52;80.86
47556;BME280;33291;46.222;26.460;2024-02-15T07:32:07;97089.91;;;3.47;80.44
47556;BME280;33291;46.222;26.460;2024-02-15T07:34:33;97100.75;;;3.54;79.92
47556;BME280;33291;46.222;26.460;2024-02-15T07:36:59;97095.69;;;3.52;79.64
47556;BME280;33291;46.222;26.460;2024-02-15T07:39:25;97107.22;;;3.61;79.68
47556;BME280;33291;46.222;26.460;2024-02-15T07:41:56;97107.06;;;3.64;79.79
47556;BME280;33291;46.222;26.460;2024-02-15T07:44:24;97102.59;;;3.68;79.69
47556;BME280;33291;46.222;26.460;2024-02-15T07:46:50;97102.44;;;3.71;79.08
47556;BME280;33291;46.222;26.460;2024-02-15T07:49:16;97100.66;;;3.71;79.17
47556;BME280;33291;46.222;26.460;2024-02-15T07:51:43;97109.84;;;3.77;79.31
47556;BME280;33291;46.222;26.460;2024-02-15T07:54:09;97109.75;;;3.79;79.26
47556;BME280;33291;46.222;26.460;2024-02-15T07:56:36;97095.28;;;3.76;79.13
47556;BME280;33291;46.222;26.460;2024-02-15T07:59:01;97100.09;;;3.82;78.95
47556;BME280;33291;46.222;26.460;2024-02-15T08:01:28;97087.47;;;3.78;79.48
47556;BME280;33291;46.222;26.460;2024-02-15T08:03:56;97091.53;;;3.82;79.30
47556;BME280;33291;46.222;26.460;2024-02-15T08:06:22;97090.56;;;3.84;79.00
47556;BME280;33291;46.222;26.460;2024-02-15T08:08:51;97096.38;;;3.88;78.98
47556;BME280;33291;46.222;26.460;2024-02-15T08:11:17;97098.03;;;3.89;78.82
47556;BME280;33291;46.222;26.460;2024-02-15T08:16:10;97113.75;;;4.00;78.68
47556;BME280;33291;46.222;26.460;2024-02-15T08:18:38;97106.75;;;4.02;78.68
47556;BME280;33291;46.222;26.460;2024-02-15T08:21:05;97107.25;;;4.09;78.36
47556;BME280;33291;46.222;26.460;2024-02-15T08:23:30;97094.38;;;4.09;78.23
47556;BME280;33291;46.222;26.460;2024-02-15T08:25:57;97094.38;;;4.09;78.04
47556;BME280;33291;46.222;26.460;2024-02-15T08:28:23;97094.28;;;4.11;77.74
47556;BME280;33291;46.222;26.460;2024-02-15T08:30:48;97100.00;;;4.16;77.62
47556;BME280;33291;46.222;26.460;2024-02-15T08:33:14;97084.78;;;4.11;77.85
47556;BME280;33291;46.222;26.460;2024-02-15T08:35:40;97085.56;;;4.13;77.53
47556;BME280;33291;46.222;26.460;2024-02-15T08:38:06;97093.78;;;4.20;77.57
47556;BME280;33291;46.222;26.460;2024-02-15T08:40:32;97098.59;;;4.26;77.71
47556;BME280;33291;46.222;26.460;2024-02-15T08:42:58;97094.25;;;4.26;77.49
47556;BME280;33291;46.222;26.460;2024-02-15T08:45:23;97107.75;;;4.32;76.97
47556;BME280;33291;46.222;26.460;2024-02-15T08:47:50;97101.91;;;4.28;76.71
47556;BME280;33291;46.222;26.460;2024-02-15T08:50:18;97104.19;;;4.34;76.45
47556;BME280;33291;46.222;26.460;2024-02-15T08:52:45;97100.75;;;4.34;76.54
47556;BME280;33291;46.222;26.460;2024-02-15T08:55:12;97105.47;;;4.41;76.24
47556;BME280;33291;46.222;26.460;2024-02-15T08:57:40;97100.41;;;4.40;76.11
47556;BME280;33291;46.222;26.460;2024-02-15T09:00:08;97093.44;;;4.42;76.06
47556;BME280;33291;46.222;26.460;2024-02-15T09:02:43;97102.28;;;4.52;75.55
47556;BME280;33291;46.222;26.460;2024-02-15T09:05:09;97088.75;;;4.49;75.49
47556;BME280;33291;46.222;26.460;2024-02-15T09:07:35;97096.06;;;4.56;75.12
47556;BME280;33291;46.222;26.460;2024-02-15T09:10:05;97089.91;;;4.59;74.76
47556;BME280;33291;46.222;26.460;2024-02-15T09:12:32;97092.84;;;4.67;74.67
47556;BME280;33291;46.222;26.460;2024-02-15T09:14:58;97084.13;;;4.70;74.80
47556;BME280;33291;46.222;26.460;2024-02-15T09:17:23;97095.66;;;4.78;74.63
47556;BME280;33291;46.222;26.460;2024-02-15T09:19:51;97080.00;;;4.82;74.26
47556;BME280;33291;46.222;26.460;2024-02-15T09:22:17;97082.31;;;4.86;73.95
47556;BME280;33291;46.222;26.460;2024-02-15T09:24:44;97079.28;;;4.94;73.67
47556;BME280;33291;46.222;26.460;2024-02-15T09:27:09;97081.97;;;4.92;73.72
47556;BME280;33291;46.222;26.460;2024-02-15T09:29:38;97092.38;;;5.05;73.61
47556;BME280;33291;46.222;26.460;2024-02-15T09:32:05;97086.22;;;5.08;73.32
47556;BME280;33291;46.222;26.460;2024-02-15T09:34:31;97085.94;;;5.12;73.11
47556;BME280;33291;46.222;26.460;2024-02-15T09:36:58;97081.50;;;5.14;73.37
47556;BME280;33291;46.222;26.460;2024-02-15T09:39:24;97084.66;;;5.20;73.08
47556;BME280;33291;46.222;26.460;2024-02-15T09:41:49;97056.41;;;5.02;72.96
47556;BME280;33291;46.222;26.460;2024-02-15T09:44:23;97081.16;;;5.21;73.04
47556;BME280;33291;46.222;26.460;2024-02-15T09:47:00;97077.66;;;5.22;72.91
47556;BME280;33291;46.222;26.460;2024-02-15T09:49:29;97077.66;;;5.22;72.97
47556;BME280;33291;46.222;26.460;2024-02-15T09:51:56;97069.63;;;5.26;72.49
47556;BME280;33291;46.222;26.460;2024-02-15T09:54:23;97063.28;;;5.32;72.68
47556;BME280;33291;46.222;26.460;2024-02-15T09:56:50;97052.41;;;5.27;72.48
47556;BME280;33291;46.222;26.460;2024-02-15T09:59:16;97053.94;;;5.29;71.59
47556;BME280;33291;46.222;26.460;2024-02-15T10:01:45;97063.72;;;5.39;71.43
47556;BME280;33291;46.222;26.460;2024-02-15T10:04:13;97057.00;;;5.36;71.02
47556;BME280;33291;46.222;26.460;2024-02-15T10:06:42;97064.38;;;5.42;71.10
47556;BME280;33291;46.222;26.460;2024-02-15T10:09:27;97049.59;;;5.44;70.71
47556;BME280;33291;46.222;26.460;2024-02-15T10:11:57;97056.16;;;5.50;70.53
47556;BME280;33291;46.222;26.460;2024-02-15T10:14:28;97060.19;;;5.54;69.60
47556;BME280;33291;46.222;26.460;2024-02-15T10:16:54;97050.81;;;5.53;69.87
47556;BME280;33291;46.222;26.460;2024-02-15T10:19:20;97028.22;;;5.42;69.78
47556;BME280;33291;46.222;26.460;2024-02-15T10:21:53;97042.41;;;5.64;69.49
47556;BME280;33291;46.222;26.460;2024-02-15T10:24:23;97050.69;;;5.69;69.40
47556;BME280;33291;46.222;26.460;2024-02-15T10:27:00;97048.75;;;5.73;69.48
47556;BME280;33291;46.222;26.460;2024-02-15T10:29:30;97048.47;;;5.77;69.26
47556;BME280;33291;46.222;26.460;2024-02-15T10:31:57;97046.50;;;5.81;69.01
47556;BME280;33291;46.222;26.460;2024-02-15T10:34:27;97035.44;;;5.79;68.75
47556;BME280;33291;46.222;26.460;2024-02-15T10:37:16;97028.59;;;5.78;68.50
47556;BME280;33291;46.222;26.460;2024-02-15T10:39:42;97045.22;;;5.88;68.05
47556;BME280;33291;46.222;26.460;2024-02-15T10:42:08;97040.03;;;5.88;67.41
47556;BME280;33291;46.222;26.460;2024-02-15T10:44:37;97053.41;;;5.95;67.59
47556;BME280;33291;46.222;26.460;2024-02-15T10:47:06;97053.03;;;6.01;67.13
47556;BME280;33291;46.222;26.460;2024-02-15T10:49:34;97045.19;;;6.02;67.00
47556;BME280;33291;46.222;26.460;2024-02-15T10:52:01;97049.34;;;6.05;67.03
47556;BME280;33291;46.222;26.460;2024-02-15T10:54:52;97042.31;;;6.07;67.00
47556;BME280;33291;46.222;26.460;2024-02-15T10:57:25;97044.59;;;6.12;66.85
47556;BME280;33291;46.222;26.460;2024-02-15T10:59:55;97030.13;;;6.09;66.63
47556;BME280;33291;46.222;26.460;2024-02-15T11:02:30;97036.75;;;6.13;66.47
47556;BME280;33291;46.222;26.460;2024-02-15T11:07:31;97034.31;;;6.25;65.86
47556;BME280;33291;46.222;26.460;2024-02-15T11:09:57;97031.72;;;6.25;65.90
47556;BME280;33291;46.222;26.460;2024-02-15T11:12:24;97035.22;;;6.23;65.64
47556;BME280;33291;46.222;26.460;2024-02-15T11:14:54;97029.75;;;6.28;65.49
47556;BME280;33291;46.222;26.460;2024-02-15T11:23:03;97029.25;;;6.36;65.51
47556;BME280;33291;46.222;26.460;2024-02-15T11:25:36;97038.50;;;6.40;65.68
47556;BME280;33291;46.222;26.460;2024-02-15T11:30:48;97029.50;;;6.46;65.23
47556;BME280;33291;46.222;26.460;2024-02-15T11:33:35;97025.97;;;6.47;65.09
47556;BME280;33291;46.222;26.460;2024-02-15T11:36:03;97030.13;;;6.49;64.83
47556;BME280;33291;46.222;26.460;2024-02-15T11:38:32;97012.94;;;6.48;64.60
47556;BME280;33291;46.222;26.460;2024-02-15T11:46:14;97015.16;;;6.54;64.59
47556;BME280;33291;46.222;26.460;2024-02-15T11:48:40;97021.25;;;6.53;63.79
47556;BME280;33291;46.222;26.460;2024-02-15T11:51:09;97036.47;;;6.58;64.22
47556;BME280;33291;46.222;26.460;2024-02-15T11:53:37;97027.88;;;6.57;64.02
47556;BME280;33291;46.222;26.460;2024-02-15T11:56:03;97019.16;;;6.58;64.09
47556;BME280;33291;46.222;26.460;2024-02-15T11:58:34;97024.13;;;6.62;63.86
47556;BME280;33291;46.222;26.460;2024-02-15T12:01:17;97020.44;;;6.66;63.53
47556;BME280;33291;46.222;26.460;2024-02-15T12:04:02;97011.94;;;6.64;63.31
47556;BME280;33291;46.222;26.460;2024-02-15T12:06:46;97014.03;;;6.71;62.97
47556;BME280;33291;46.222;26.460;2024-02-15T12:09:31;97011.19;;;6.62;62.83
47556;BME280;33291;46.222;26.460;2024-02-15T12:12:32;97018.16;;;6.74;63.16
47556;BME280;33291;46.222;26.460;2024-02-15T12:15:16;97017.72;;;6.80;63.17
47556;BME280;33291;46.222;26.460;2024-02-15T12:18:16;97016.59;;;6.84;62.90
47556;BME280;33291;46.222;26.460;2024-02-15T12:21:01;97021.69;;;6.86;62.93
47556;BME280;33291;46.222;26.460;2024-02-15T12:23:28;97013.81;;;6.87;63.01
47556;BME280;33291;46.222;26.460;2024-02-15T12:25:55;97024.72;;;6.92;63.19
47556;BME280;33291;46.222;26.460;2024-02-15T12:28:21;97024.59;;;6.94;63.31
47556;BME280;33291;46.222;26.460;2024-02-15T12:30:54;97017.75;;;6.93;63.05
47556;BME280;33291;46.222;26.460;2024-02-15T12:33:21;97021.28;;;6.92;62.76
47556;BME280;33291;46.222;26.460;2024-02-15T12:35:46;97027.00;;;6.97;62.86
47556;BME280;33291;46.222;26.460;2024-02-15T12:38:13;97021.81;;;6.97;63.12
47556;BME280;33291;46.222;26.460;2024-02-15T12:40:42;97011.75;;;6.92;62.75
47556;BME280;33291;46.222;26.460;2024-02-15T12:43:08;97019.22;;;6.97;62.67
47556;BME280;33291;46.222;26.460;2024-02-15T12:45:39;97017.34;;;6.99;62.50
47556;BME280;33291;46.222;26.460;2024-02-15T12:48:06;97012.97;;;7.00;62.63
47556;BME280;33291;46.222;26.460;2024-02-15T12:50:32;97012.78;;;7.03;62.82
47556;BME280;33291;46.222;26.460;2024-02-15T12:53:00;97012.88;;;7.01;63.10
47556;BME280;33291;46.222;26.460;2024-02-15T12:55:32;97015.78;;;7.09;62.71
47556;BME280;33291;46.222;26.460;2024-02-15T12:58:00;97010.72;;;7.08;61.84
47556;BME280;33291;46.222;26.460;2024-02-15T13:00:30;97006.78;;;7.02;61.66
47556;BME280;33291;46.222;26.460;2024-02-15T13:02:59;97016.09;;;7.05;62.44
47556;BME280;33291;46.222;26.460;2024-02-15T13:05:29;97022.94;;;7.06;62.61
47556;BME280;33291;46.222;26.460;2024-02-15T13:07:56;97006.78;;;7.02;62.55
47556;BME280;33291;46.222;26.460;2024-02-15T13:10:28;97018.47;;;7.08;62.66
47556;BME280;33291;46.222;26.460;2024-02-15T13:12:55;97015.03;;;7.07;62.84
47556;BME280;33291;46.222;26.460;2024-02-15T13:15:21;97013.00;;;7.13;62.76
47556;BME280;33291;46.222;26.460;2024-02-15T13:17:53;97021.25;;;7.18;62.51
47556;BME280;33291;46.222;26.460;2024-02-15T13:20:20;97023.53;;;7.22;62.71
47556;BME280;33291;46.222;26.460;2024-02-15T13:22:52;97014.94;;;7.22;62.47
47556;BME280;33291;46.222;26.460;2024-02-15T13:25:19;97016.72;;;7.21;61.98